Time;durP1;ratioP1;P1;durP2;ratioP2;P2;SDS_P1;SDS_P2;PMS_P1;PMS_P2;Temp;Humidity;BMP_temperature;BMP_pressure;BME280_temperature;BME280_humidity;BME280_pressure;Samples;Min_cycle;Max_cycle;Signal;HPM_P1;HPM_P2
2022/01/17 00:02:45;;;;;;;1.75;0.68;;;;;;;4.98;100.00;102209.53;6347914;28;20176;-78
2022/01/17 00:05:46;;;;;;;4.50;1.05;;;;;;;4.96;100.00;102226.94;6348039;28;20414;-80
2022/01/17 00:08:49;;;;;;;14.57;1.48;;;;;;;5.03;100.00;102233.81;6326688;28;20048;-79
2022/01/17 00:11:51;;;;;;;0.73;0.50;;;;;;;5.11;100.00;102248.53;6321627;28;20048;-79
2022/01/17 00:14:55;;;;;;;3.47;0.70;;;;;;;5.04;100.00;102252.91;6322327;28;20181;-78
2022/01/17 00:18:22;;;;;;;3.50;0.38;;;;;;;4.98;100.00;102253.81;6322230;28;20410;-78
2022/01/17 00:21:20;;;;;;;0.93;0.52;;;;;;;5.00;100.00;102249.47;6321949;28;20062;-79
2022/01/17 00:24:21;;;;;;;0.82;0.65;;;;;;;5.00;100.00;102252.09;6322319;28;20055;-79
2022/01/17 00:27:22;;;;;;;2.17;0.50;;;;;;;4.98;100.00;102246.00;6322204;28;20450;-79
2022/01/17 00:30:24;;;;;;;6.57;0.30;;;;;;;5.00;100.00;102215.63;6323173;28;20048;-78
2022/01/17 00:33:26;;;;;;;1.10;0.60;;;;;;;5.01;100.00;102221.69;6324304;28;20044;-78
2022/01/17 00:36:28;;;;;;;5.85;0.60;;;;;;;5.00;100.00;102223.44;6327863;28;20056;-79
2022/01/17 00:39:29;;;;;;;0.55;0.30;;;;;;;5.10;100.00;102216.41;6327131;28;20491;-78
2022/01/17 00:42:31;;;;;;;1.15;0.70;;;;;;;5.14;100.00;102228.56;6326426;28;20055;-81
2022/01/17 00:45:32;;;;;;;2.22;0.98;;;;;;;5.17;100.00;102228.50;6326435;28;20052;-79
2022/01/17 00:48:35;;;;;;;4.93;0.65;;;;;;;5.09;100.00;102238.13;6326653;28;20070;-81
2022/01/17 00:51:36;;;;;;;11.43;0.68;;;;;;;5.05;100.00;102241.63;6326302;28;20414;-80
2022/01/17 00:54:37;;;;;;;3.92;0.40;;;;;;;5.07;100.00;102239.88;6326155;28;20054;-78
2022/01/17 00:57:39;;;;;;;2.17;0.52;;;;;;;5.03;100.00;102225.13;6326407;28;20055;-78
2022/01/17 01:00:41;;;;;;;2.67;0.38;;;;;;;5.05;100.00;102237.28;6325696;28;20048;-78
2022/01/17 01:03:43;;;;;;;11.68;0.75;;;;;;;5.03;100.00;102246.84;6341265;28;20417;-79
2022/01/17 01:06:45;;;;;;;3.00;0.68;;;;;;;5.02;100.00;102254.66;6351360;28;20546;-79
2022/01/17 01:09:56;;;;;;;3.90;0.85;;;;;;;5.11;100.00;102246.81;6350367;28;20047;-79
2022/01/17 01:12:57;;;;;;;2.50;0.60;;;;;;;5.15;100.00;102268.50;6350961;28;20048;-80
2022/01/17 01:16:21;;;;;;;0.80;0.30;;;;;;;5.17;100.00;102235.47;6344030;27;20055;-79
2022/01/17 01:19:28;;;;;;;0.77;0.40;;;;;;;5.11;100.00;102251.16;6329422;28;20125;-78
2022/01/17 01:29:07;;;;;;;5.10;0.30;;;;;;;5.10;100.00;102221.63;6349804;28;20507;-79
2022/01/17 01:32:10;;;;;;;3.75;0.57;;;;;;;5.09;100.00;102212.94;6342594;28;20055;-77
2022/01/17 01:35:16;;;;;;;3.83;0.30;;;;;;;5.06;100.00;102212.09;6324260;28;20055;-77
2022/01/17 01:38:17;;;;;;;4.88;1.30;;;;;;;5.01;100.00;102203.44;6324518;28;20040;-80
2022/01/17 01:41:20;;;;;;;0.47;0.22;;;;;;;4.95;100.00;102200.88;6324079;28;20051;-78
2022/01/17 01:44:23;;;;;;;3.40;0.77;;;;;;;4.97;100.00;102219.97;6332509;28;20056;-80
2022/01/17 01:47:27;;;;;;;1.30;0.57;;;;;;;4.94;100.00;102223.44;6348491;28;20514;-77
2022/01/17 01:50:30;;;;;;;0.52;0.50;;;;;;;4.87;100.00;102223.53;6349030;28;20054;-80
2022/01/17 01:53:31;;;;;;;0.75;0.28;;;;;;;4.91;100.00;102209.59;6349665;28;20158;-77
2022/01/17 01:56:35;;;;;;;2.15;0.88;;;;;;;4.95;100.00;102199.16;6348864;28;20059;-79
2022/01/17 01:59:37;;;;;;;2.88;0.73;;;;;;;4.95;100.00;102199.16;6348999;28;20054;-79
2022/01/17 02:02:39;;;;;;;2.55;0.40;;;;;;;4.93;100.00;102231.28;6347992;28;20066;-81
2022/01/17 02:05:43;;;;;;;1.90;0.60;;;;;;;4.93;100.00;102232.16;6349714;28;20055;-77
2022/01/17 02:08:44;;;;;;;2.90;1.17;;;;;;;4.87;100.00;102236.53;6350608;28;20070;-80
2022/01/17 02:11:45;;;;;;;1.25;0.32;;;;;;;4.90;100.00;102215.66;6351255;28;20047;-80
2022/01/17 02:14:48;;;;;;;0.30;0.30;;;;;;;4.90;100.00;102231.28;6350064;28;20051;-81
2022/01/17 02:17:54;;;;;;;5.15;0.57;;;;;;;4.91;100.00;102220.03;6349689;28;20130;-78
2022/01/17 02:21:12;;;;;;;2.10;0.65;;;;;;;4.92;100.00;102222.59;6348404;28;20048;-80
2022/01/17 02:24:16;;;;;;;1.20;0.50;;;;;;;4.90;100.00;102216.53;6346152;28;20044;-82
2022/01/17 02:27:17;;;;;;;1.17;0.50;;;;;;;4.88;100.00;102194.00;6344008;28;20741;-79
2022/01/17 02:30:22;;;;;;;1.95;0.43;;;;;;;4.91;100.00;102170.53;6348747;28;20177;-79
2022/01/17 02:33:23;;;;;;;10.43;0.90;;;;;;;4.88;100.00;102174.00;6346741;28;20499;-79
2022/01/17 02:36:26;;;;;;;1.77;0.50;;;;;;;4.85;100.00;102176.63;6348911;28;20051;-79
2022/01/17 02:39:28;;;;;;;0.15;0.13;;;;;;;4.90;100.00;102174.00;6348726;28;20044;-80
2022/01/17 02:42:29;;;;;;;1.95;0.50;;;;;;;4.89;100.00;102167.91;6345213;28;20048;-79
2022/01/17 02:45:33;;;;;;;1.42;0.82;;;;;;;4.90;100.00;102194.81;6328162;28;20052;-80
2022/01/17 02:48:36;;;;;;;1.80;0.32;;;;;;;4.99;100.00;102199.97;6323019;28;20475;-80
2022/01/17 02:51:40;;;;;;;1.70;0.40;;;;;;;4.94;100.00;102173.09;6322656;28;20056;-79
2022/01/17 02:54:41;;;;;;;4.15;0.57;;;;;;;4.96;100.00;102171.38;6322478;28;20082;-80
2022/01/17 02:57:42;;;;;;;2.25;0.88;;;;;;;4.95;100.00;102173.09;6322403;28;20044;-79
2022/01/17 03:00:44;;;;;;;0.95;0.40;;;;;;;4.91;100.00;102167.94;6321932;28;20419;-80
2022/01/17 03:03:46;;;;;;;0.77;0.50;;;;;;;4.88;100.00;102168.81;6330233;28;20048;-79
2022/01/17 03:06:49;;;;;;;2.75;0.90;;;;;;;4.83;100.00;102184.47;6347990;28;20056;-80
2022/01/17 03:10:01;;;;;;;0.98;0.60;;;;;;;4.91;100.00;102199.19;6347732;28;20040;-80
2022/01/17 03:13:04;;;;;;;0.40;0.38;;;;;;;4.95;100.00;102217.38;6347386;28;20464;-80
2022/01/17 03:16:09;;;;;;;3.28;0.95;;;;;;;4.95;100.00;102200.88;6338701;28;20521;-78
2022/01/17 03:19:10;;;;;;;3.38;0.73;;;;;;;4.95;100.00;102224.31;6338951;28;20047;-82
2022/01/17 03:22:13;;;;;;;0.93;0.35;;;;;;;4.89;100.00;102219.16;6334149;28;20400;-80
2022/01/17 03:25:14;;;;;;;0.80;0.30;;;;;;;4.93;100.00;102208.69;6341418;28;20526;-80
2022/01/17 03:28:16;;;;;;;8.55;0.40;;;;;;;4.89;100.00;102214.81;6338586;28;20043;-81
2022/01/17 03:31:18;;;;;;;2.53;0.70;;;;;;;4.85;100.00;102218.28;6347543;28;20055;-81
2022/01/17 03:34:19;;;;;;;3.38;0.50;;;;;;;4.89;100.00;102219.16;6347013;28;20055;-82
2022/01/17 03:37:22;;;;;;;6.28;1.13;;;;;;;4.92;100.00;102216.53;6347555;28;20055;-80
2022/01/17 03:40:23;;;;;;;1.30;0.50;;;;;;;4.91;100.00;102210.47;6342721;28;20043;-81
2022/01/17 03:43:25;;;;;;;5.55;0.43;;;;;;;4.94;100.00;102188.72;6346917;28;20043;-80
2022/01/17 03:46:27;;;;;;;6.30;0.80;;;;;;;4.93;100.00;102198.28;6347401;28;20058;-80
2022/01/17 03:49:28;;;;;;;4.05;0.95;;;;;;;4.93;100.00;102195.69;6348193;28;20051;-80
2022/01/17 03:52:31;;;;;;;1.13;0.63;;;;;;;4.91;100.00;102199.19;6346852;28;20486;-80
2022/01/17 03:55:34;;;;;;;0.90;0.43;;;;;;;4.94;100.00;102186.13;6337958;28;20051;-78
2022/01/17 03:58:36;;;;;;;4.03;0.65;;;;;;;4.92;100.00;102169.66;6333288;28;21705;-83
2022/01/17 04:01:38;;;;;;;0.57;0.47;;;;;;;4.94;100.00;102168.75;6340937;28;20494;-80
2022/01/17 04:04:39;;;;;;;0.80;0.40;;;;;;;4.86;100.00;102180.09;6334668;28;20048;-78
2022/01/17 04:07:42;;;;;;;0.85;0.68;;;;;;;4.82;100.00;102168.84;6339356;28;20047;-78
2022/01/17 04:10:43;;;;;;;5.35;1.00;;;;;;;4.86;100.00;102161.84;6350554;28;20052;-80
2022/01/17 04:13:45;;;;;;;9.63;0.85;;;;;;;4.87;100.00;102176.63;6338951;28;20051;-77
2022/01/17 04:16:47;;;;;;;1.40;0.30;;;;;;;4.96;100.00;102177.44;6353347;28;20055;-79
2022/01/17 04:19:52;;;;;;;13.43;1.40;;;;;;;4.91;100.00;102175.75;6352047;28;20050;-80
2022/01/17 04:22:56;;;;;;;5.43;0.47;;;;;;;4.93;100.00;102172.22;6344751;28;20070;-79
2022/01/17 04:25:58;;;;;;;4.78;0.50;;;;;;;4.94;100.00;102202.59;6343965;28;20133;-82
2022/01/17 04:28:59;;;;;;;7.63;0.70;;;;;;;4.90;100.00;102169.63;6352369;28;20044;-79
2022/01/17 04:32:02;;;;;;;4.65;0.45;;;;;;;4.90;100.00;102168.78;6352459;28;20047;-80
2022/01/17 04:35:05;;;;;;;1.35;0.80;;;;;;;4.94;100.00;102179.16;6331425;28;20083;-79
2022/01/17 04:38:10;;;;;;;3.55;0.55;;;;;;;4.90;100.00;102174.00;6326842;28;20051;-79
2022/01/17 04:41:15;;;;;;;2.78;0.60;;;;;;;4.98;100.00;102164.38;6326574;28;20051;-78
2022/01/17 04:47:38;;;;;;;14.88;0.77;;;;;;;4.95;100.00;102167.91;6327004;28;20052;-82
2022/01/17 04:50:39;;;;;;;2.53;0.20;;;;;;;5.00;100.00;102173.94;6326052;28;20051;-79
2022/01/17 04:53:52;;;;;;;3.55;0.90;;;;;;;5.00;100.00;102176.53;6327282;28;20503;-79
2022/01/17 04:56:53;;;;;;;6.63;0.77;;;;;;;5.03;100.00;102196.47;6327404;28;20201;-79
2022/01/17 04:59:54;;;;;;;1.60;0.30;;;;;;;5.01;100.00;102190.44;6325923;28;20047;-82
2022/01/17 05:02:56;;;;;;;1.05;0.35;;;;;;;4.92;100.00;102178.31;6326806;28;20048;-81
2022/01/17 05:05:57;;;;;;;0.47;0.20;;;;;;;4.94;100.00;102183.50;6327662;28;20040;-81
2022/01/17 05:09:02;;;;;;;2.28;0.35;;;;;;;4.98;100.00;102190.44;6326980;28;20051;-81
2022/01/17 05:12:03;;;;;;;3.25;0.30;;;;;;;4.94;100.00;102176.56;6326564;28;20074;-81
2022/01/17 05:15:17;;;;;;;0.25;0.25;;;;;;;4.97;100.00;102180.91;6327397;28;20514;-82
2022/01/17 05:19:48;;;;;;;3.15;0.95;;;;;;;4.96;100.00;102177.44;6334987;28;20063;-82
2022/01/17 05:21:46;;;;;;;1.88;0.88;;;;;;;4.97;100.00;102171.34;6333035;28;20118;-80
2022/01/17 05:24:49;;;;;;;16.15;1.85;;;;;;;4.96;100.00;102180.03;6345478;28;20486;-79
2022/01/17 05:27:51;;;;;;;13.00;0.68;;;;;;;4.91;100.00;102175.75;6338414;28;20072;-83
2022/01/17 05:30:52;;;;;;;3.42;0.57;;;;;;;4.97;100.00;102180.91;6351651;28;20055;-85
2022/01/17 05:33:53;;;;;;;2.15;0.40;;;;;;;4.96;100.00;102195.66;6347255;28;20063;-80
2022/01/17 05:36:55;;;;;;;10.65;0.73;;;;;;;4.93;100.00;102177.44;6326345;28;20501;-81
2022/01/17 05:39:57;;;;;;;3.75;0.65;;;;;;;4.97;100.00;102186.97;6330949;28;20486;-82
2022/01/17 05:42:59;;;;;;;5.13;0.82;;;;;;;4.93;100.00;102177.44;6343602;28;20047;-80
2022/01/17 05:46:00;;;;;;;7.82;1.77;;;;;;;4.94;100.00;102186.97;6351696;28;20055;-79
2022/01/17 05:49:01;;;;;;;5.88;0.52;;;;;;;4.94;100.00;102170.50;6349697;28;20591;-82
2022/01/17 05:52:04;;;;;;;1.60;0.47;;;;;;;4.92;100.00;102164.44;6349200;28;20414;-82
2022/01/17 05:55:11;;;;;;;2.00;1.00;;;;;;;4.99;100.00;102163.50;6349818;28;20418;-78
2022/01/17 05:58:13;;;;;;;3.85;0.60;;;;;;;4.91;100.00;102147.09;6349460;28;20522;-78
2022/01/17 06:01:15;;;;;;;3.25;0.47;;;;;;;4.88;100.00;102150.56;6350045;28;20134;-74
2022/01/17 06:04:16;;;;;;;1.90;0.50;;;;;;;4.92;100.00;102144.47;6347784;28;20039;-80
2022/01/17 06:07:18;;;;;;;3.60;0.90;;;;;;;4.93;100.00;102159.22;6348803;28;20051;-79
2022/01/17 06:10:21;;;;;;;1.20;0.35;;;;;;;4.93;100.00;102167.03;6341802;27;20494;-80
2022/01/17 06:13:22;;;;;;;3.72;0.20;;;;;;;4.97;100.00;102201.75;6341530;28;20055;-81
2022/01/17 06:16:24;;;;;;;2.78;0.88;;;;;;;5.03;100.00;102193.88;6349583;28;20047;-79
2022/01/17 06:19:26;;;;;;;1.50;0.60;;;;;;;4.98;100.00;102186.09;6350064;28;20051;-81
2022/01/17 06:22:28;;;;;;;1.40;0.38;;;;;;;4.96;100.00;102200.03;6349714;28;20048;-82
2022/01/17 06:25:32;;;;;;;3.15;0.30;;;;;;;4.96;100.00;102220.84;6347677;28;20046;-81
2022/01/17 06:28:33;;;;;;;0.93;0.30;;;;;;;4.98;100.00;102201.72;6345077;27;20486;-82
2022/01/17 06:31:35;;;;;;;1.35;0.85;;;;;;;4.97;100.00;102167.88;6333655;28;20039;-82
2022/01/17 06:34:36;;;;;;;6.90;0.45;;;;;;;4.93;100.00;102172.22;6334619;28;20044;-82
2022/01/17 06:37:39;;;;;;;2.22;0.43;;;;;;;4.95;100.00;102180.03;6340330;28;20048;-83
2022/01/17 06:40:41;;;;;;;3.80;0.52;;;;;;;5.00;100.00;102165.25;6350686;28;20136;-81
2022/01/17 06:43:43;;;;;;;2.53;0.77;;;;;;;4.92;100.00;102170.50;6352600;28;20055;-80
2022/01/17 06:46:44;;;;;;;1.63;0.75;;;;;;;4.94;100.00;102186.97;6349227;28;20052;-81
2022/01/17 06:49:46;;;;;;;1.17;0.60;;;;;;;4.95;100.00;102183.53;6331278;28;20502;-82
2022/01/17 06:52:47;;;;;;;6.95;0.43;;;;;;;4.89;100.00;102180.06;6323660;28;20047;-82
2022/01/17 06:55:50;;;;;;;0.98;0.45;;;;;;;4.88;100.00;102207.88;6324309;28;20055;-81
2022/01/17 06:58:51;;;;;;;1.25;0.70;;;;;;;4.88;100.00;102220.91;6324303;28;20044;-82
2022/01/17 07:01:53;;;;;;;2.60;0.80;;;;;;;4.86;100.00;102250.41;6323614;28;20048;-83
2022/01/17 07:04:54;;;;;;;0.88;0.40;;;;;;;4.83;100.00;102254.78;6324604;28;20055;-81
2022/01/17 07:07:56;;;;;;;6.70;0.47;;;;;;;4.82;100.00;102291.25;6323441;28;20052;-83
2022/01/17 07:10:59;;;;;;;0.90;0.30;;;;;;;4.87;100.00;102302.53;6323290;28;20055;-78
2022/01/17 07:14:00;;;;;;;8.55;0.68;;;;;;;4.90;100.00;102265.16;6323416;28;20050;-81
2022/01/17 07:17:01;;;;;;;4.32;1.10;;;;;;;4.82;100.00;102249.59;6334197;28;20056;-83
2022/01/17 07:20:05;;;;;;;0.75;0.60;;;;;;;4.81;100.00;102221.78;6340058;28;20047;-82
2022/01/17 07:23:06;;;;;;;6.22;0.95;;;;;;;4.80;100.00;102220.06;6335450;28;20059;-82
2022/01/17 07:26:09;;;;;;;4.82;1.05;;;;;;;4.80;100.00;102202.69;6347716;28;20047;-80
2022/01/17 07:29:10;;;;;;;0.63;0.13;;;;;;;4.72;100.00;102219.25;6339924;28;20040;-81
2022/01/17 07:32:12;;;;;;;1.63;0.57;;;;;;;4.67;100.00;102227.06;6346480;28;20490;-77
2022/01/17 07:35:13;;;;;;;5.93;1.08;;;;;;;4.66;100.00;102224.50;6346097;28;20422;-80
2022/01/17 07:38:14;;;;;;;6.75;0.50;;;;;;;4.64;100.00;102239.28;6337120;28;20052;-80
2022/01/17 07:41:17;;;;;;;5.60;1.08;;;;;;;4.58;100.00;102232.31;6323161;28;20055;-80
2022/01/17 07:44:20;;;;;;;6.93;0.63;;;;;;;4.58;100.00;102222.78;6338651;28;20056;-79
2022/01/17 07:47:37;;;;;;;3.33;0.70;;;;;;;4.51;100.00;102215.88;6348137;28;20103;-79
2022/01/17 07:50:42;;;;;;;1.63;0.70;;;;;;;4.53;100.00;102218.47;6346571;28;20044;-79
2022/01/17 07:53:44;;;;;;;3.38;0.60;;;;;;;4.49;100.00;102216.75;6347395;28;20054;-78
2022/01/17 07:56:47;;;;;;;4.90;1.02;;;;;;;4.43;100.00;102203.78;6349647;28;20442;-80
2022/01/17 07:59:49;;;;;;;2.30;0.95;;;;;;;4.45;100.00;102239.34;6348194;28;20480;-78
2022/01/17 08:02:51;;;;;;;2.40;0.60;;;;;;;4.45;100.00;102228.03;6348629;28;20059;-78
2022/01/17 08:05:52;;;;;;;1.73;0.75;;;;;;;4.46;100.00;102219.38;6334704;28;20040;-79
2022/01/17 08:08:55;;;;;;;0.80;0.70;;;;;;;4.47;100.00;102228.91;6334940;28;20052;-79
2022/01/17 08:11:58;;;;;;;1.55;0.68;;;;;;;4.47;100.00;102237.59;6358321;28;20058;-78
2022/01/17 08:15:04;;;;;;;0.88;0.88;;;;;;;4.42;100.00;102241.94;6345646;28;20060;-82
2022/01/17 08:18:05;;;;;;;0.95;0.75;;;;;;;4.40;100.00;102230.66;6348672;28;20188;-78
2022/01/17 08:21:07;;;;;;;4.13;1.08;;;;;;;4.46;100.00;102215.03;6344302;28;20040;-79
2022/01/17 08:24:08;;;;;;;1.30;0.68;;;;;;;4.45;100.00;102208.13;6330143;28;20418;-78
2022/01/17 08:27:11;;;;;;;3.35;0.70;;;;;;;4.43;100.00;102206.38;6337730;28;20514;-79
2022/01/17 08:30:14;;;;;;;3.58;1.00;;;;;;;4.42;100.00;102182.09;6327967;28;20044;-77
2022/01/17 08:33:15;;;;;;;0.93;0.75;;;;;;;4.46;100.00;102180.34;6323777;28;20056;-78
2022/01/17 08:36:19;;;;;;;2.55;0.60;;;;;;;4.51;100.00;102210.69;6330523;28;20044;-77
2022/01/17 08:39:20;;;;;;;2.20;0.55;;;;;;;4.53;100.00;102206.31;6330119;28;20526;-81
2022/01/17 08:42:23;;;;;;;0.98;0.88;;;;;;;4.54;100.00;102208.06;6323273;28;20056;-79
2022/01/17 08:45:26;;;;;;;3.75;2.08;;;;;;;4.57;100.00;102197.63;6322196;28;20060;-81
2022/01/17 08:48:27;;;;;;;2.20;0.60;;;;;;;4.63;100.00;102208.88;6322867;28;20098;-79
2022/01/17 08:51:29;;;;;;;1.00;0.90;;;;;;;4.69;100.00;102173.25;6322856;28;20550;-78
2022/01/17 08:54:30;;;;;;;4.57;1.10;;;;;;;4.71;100.00;102171.50;6346431;27;20047;-79
2022/01/17 08:57:33;;;;;;;9.23;0.95;;;;;;;4.76;100.00;102200.97;6369167;27;20070;-77
2022/01/17 09:00:34;;;;;;;2.38;1.20;;;;;;;4.72;100.00;102227.91;6378203;27;20047;-82
2022/01/17 09:03:36;;;;;;;1.05;0.95;;;;;;;4.80;100.00;102241.75;6347331;27;20050;-78
2022/01/17 09:06:38;;;;;;;1.92;1.20;;;;;;;4.85;100.00;102231.31;6327676;28;20181;-80
2022/01/17 09:09:40;;;;;;;1.20;0.95;;;;;;;4.86;100.00;102238.28;6327850;28;20040;-78
2022/01/17 09:12:44;;;;;;;1.92;1.13;;;;;;;4.89;100.00;102256.47;6343136;27;20047;-78
2022/01/17 09:15:46;;;;;;;2.38;1.20;;;;;;;4.95;100.00;102255.56;6346735;27;20043;-78
2022/01/17 09:18:47;;;;;;;2.75;1.17;;;;;;;4.98;100.00;102252.97;6333434;28;20054;-77
2022/01/17 09:21:49;;;;;;;3.30;1.85;;;;;;;5.03;100.00;102251.19;6331015;28;20460;-80
2022/01/17 09:24:51;;;;;;;7.95;1.30;;;;;;;5.06;100.00;102239.00;6341342;28;20498;-80
2022/01/17 09:27:53;;;;;;;7.55;1.15;;;;;;;5.07;100.00;102260.72;6361235;27;20052;-80
2022/01/17 09:30:55;;;;;;;2.45;0.90;;;;;;;5.08;100.00;102284.16;6359886;27;20387;-82
2022/01/17 09:33:56;;;;;;;3.00;1.45;;;;;;;5.07;100.00;102290.25;6367418;27;20052;-81
2022/01/17 09:36:57;;;;;;;1.45;1.15;;;;;;;5.05;100.00;102278.13;6349949;27;20055;-81
2022/01/17 09:39:59;;;;;;;4.30;2.05;;;;;;;5.08;100.00;102259.84;6342027;27;20051;-79
2022/01/17 09:43:02;;;;;;;5.95;1.60;;;;;;;5.09;100.00;102256.38;6345403;27;20056;-79
2022/01/17 09:46:04;;;;;;;1.45;1.23;;;;;;;5.12;100.00;102277.19;6340235;28;20064;-80
2022/01/17 09:49:20;;;;;;;1.67;0.93;;;;;;;5.15;100.00;102282.38;6347905;28;20414;-78
2022/01/17 09:52:37;;;;;;;1.75;0.90;;;;;;;5.18;100.00;102271.06;6356019;27;20490;-81
2022/01/17 09:55:38;;;;;;;1.70;1.13;;;;;;;5.21;100.00;102277.13;6361986;27;20043;-79
2022/01/17 09:58:42;;;;;;;4.25;1.20;;;;;;;5.28;100.00;102264.94;6344271;27;20048;-79
2022/01/17 10:01:43;;;;;;;8.57;1.73;;;;;;;5.34;100.00;102270.97;6336226;27;20051;-80
2022/01/17 10:04:45;;;;;;;5.78;1.40;;;;;;;5.39;100.00;102251.81;6350851;27;20058;-80
2022/01/17 10:08:00;;;;;;;8.05;1.67;;;;;;;5.42;100.00;102244.84;6355043;27;20055;-79
2022/01/17 10:11:02;;;;;;;2.92;1.30;;;;;;;5.43;100.00;102274.38;6338895;27;20081;-79
2022/01/17 10:14:23;;;;;;;1.90;1.17;;;;;;;5.46;100.00;102295.22;6343399;27;20047;-82
2022/01/17 10:17:41;;;;;;;5.35;1.92;;;;;;;5.60;100.00;102293.38;6354394;27;20046;-78
2022/01/17 10:20:46;;;;;;;;;;;;;;;5.67;100.00;102282.00;6355215;27;20040;-81
2022/01/17 10:24:11;;;;;;;4.50;1.35;;;;;;;5.67;100.00;102288.97;6348625;28;19927;-79
2022/01/17 10:27:31;;;;;;;1.10;1.00;;;;;;;5.69;100.00;102282.00;6348471;27;20059;-80
2022/01/17 10:30:49;;;;;;;9.80;1.90;;;;;;;5.69;100.00;102295.06;6321583;28;20044;-79
2022/01/17 10:37:14;;;;;;;3.47;1.55;;;;;;;5.71;100.00;102282.84;6341167;27;20047;-79
2022/01/17 10:40:15;;;;;;;4.55;1.02;;;;;;;5.73;100.00;102281.09;6343753;27;20427;-78
2022/01/17 10:43:20;;;;;;;7.50;1.85;;;;;;;5.80;100.00;102280.16;6337674;28;20490;-79
2022/01/17 10:46:23;;;;;;;6.43;1.08;;;;;;;5.79;100.00;102289.72;6336939;28;20052;-79
2022/01/17 10:49:25;;;;;;;1.65;1.05;;;;;;;5.85;100.00;102287.06;6335174;28;20096;-79
2022/01/17 10:52:33;;;;;;;1.77;1.13;;;;;;;5.86;100.00;102298.38;6340236;27;20505;-79
2022/01/17 10:55:37;;;;;;;2.33;1.00;;;;;;;5.87;100.00;102294.88;6361958;27;20400;-79
2022/01/17 10:58:40;;;;;;;4.90;1.75;;;;;;;5.85;100.00;102309.66;6350077;27;20506;-80
2022/01/17 11:01:51;;;;;;;5.22;1.55;;;;;;;5.84;100.00;102308.81;6343069;27;20127;-79
2022/01/17 11:04:52;;;;;;;11.23;1.70;;;;;;;5.82;100.00;102305.38;6337367;27;20055;-79
2022/01/17 11:07:58;;;;;;;4.60;1.30;;;;;;;5.81;100.00;102303.66;6343723;28;20057;-79
2022/01/17 11:11:01;;;;;;;7.15;1.70;;;;;;;5.86;100.00;102324.47;6350889;27;20051;-80
2022/01/17 11:14:08;;;;;;;3.38;1.17;;;;;;;5.94;100.00;102347.91;6355228;27;20052;-78
2022/01/17 11:17:21;;;;;;;8.77;1.33;;;;;;;5.97;100.00;102346.13;6345420;27;20055;-80
2022/01/17 11:20:26;;;;;;;3.17;0.63;;;;;;;5.98;100.00;102313.06;6348217;27;20069;-78
2022/01/17 11:23:28;;;;;;;11.15;1.38;;;;;;;6.05;100.00;102288.66;6353305;27;20051;-78
2022/01/17 11:26:30;;;;;;;5.15;1.05;;;;;;;6.12;100.00;102297.28;6353200;27;20048;-79
2022/01/17 11:29:31;;;;;;;3.35;0.73;;;;;;;6.05;100.00;102301.72;6341102;28;20044;-79
2022/01/17 11:32:34;;;;;;;2.38;0.68;;;;;;;6.09;100.00;102311.25;6347800;27;20048;-78
2022/01/17 11:35:41;;;;;;;4.90;1.02;;;;;;;6.15;100.00;102320.75;6349203;27;20529;-79
2022/01/17 11:38:46;;;;;;;2.53;0.68;;;;;;;6.14;100.00;102299.03;6361419;27;20517;-79
2022/01/17 11:41:50;;;;;;;7.97;1.85;;;;;;;6.14;100.00;102311.22;6352237;27;20059;-77
2022/01/17 11:44:51;;;;;;;6.43;1.65;;;;;;;6.19;100.00;102325.94;6339451;28;20584;-79
2022/01/17 11:47:55;;;;;;;7.25;1.30;;;;;;;6.19;100.00;102352.03;6340774;28;20411;-79
2022/01/17 11:50:59;;;;;;;7.50;0.98;;;;;;;6.22;100.00;102340.69;6341181;28;20058;-79
2022/01/17 11:54:10;;;;;;;5.32;1.25;;;;;;;6.22;100.00;102349.41;6347440;28;20044;-78
2022/01/17 11:57:21;;;;;;;0.85;0.70;;;;;;;6.22;100.00;102354.63;6330718;28;20044;-77
2022/01/17 12:00:29;;;;;;;3.95;1.23;;;;;;;6.26;100.00;102373.72;6342456;28;20040;-78
2022/01/17 12:03:40;;;;;;;5.95;1.65;;;;;;;6.28;100.00;102369.38;6337460;28;20047;-78
2022/01/17 12:06:41;;;;;;;9.10;1.33;;;;;;;6.32;100.00;102365.84;6332619;28;20131;-80
2022/01/17 12:09:44;;;;;;;7.07;1.00;;;;;;;6.31;100.00;102367.59;6331456;28;20044;-81
2022/01/17 12:13:34;;;;;;;4.32;0.82;;;;;;;6.25;100.00;102388.53;6331158;28;20177;-78
2022/01/17 12:16:37;;;;;;;4.60;0.75;;;;;;;6.13;100.00;102374.69;6331125;28;20419;-80
2022/01/17 12:20:19;;;;;;;0.75;0.30;;;;;;;6.06;100.00;102373.91;6331840;28;20036;-80
2022/01/17 12:23:26;;;;;;;3.78;1.02;;;;;;;6.00;100.00;102387.00;6332555;28;20052;-80
2022/01/17 12:26:29;;;;;;;8.80;0.93;;;;;;;5.95;100.00;102381.84;6332116;28;20051;-79
2022/01/17 12:29:43;;;;;;;2.20;0.95;;;;;;;5.88;100.00;102411.41;6330393;28;20089;-80
2022/01/17 12:32:54;;;;;;;12.18;1.55;;;;;;;5.93;100.00;102430.53;6336680;28;20054;-79
2022/01/17 12:35:58;;;;;;;10.02;0.68;;;;;;;5.95;100.00;102423.59;6335840;28;20373;-79
2022/01/17 12:39:11;;;;;;;4.53;0.77;;;;;;;5.94;100.00;102418.34;6337565;28;20044;-80
2022/01/17 12:42:13;;;;;;;0.25;0.25;;;;;;;6.04;100.00;102441.78;6334628;28;20040;-79
2022/01/17 12:45:19;;;;;;;1.35;0.40;;;;;;;6.15;100.00;102444.28;6335994;28;20085;-79
2022/01/17 12:48:22;;;;;;;10.27;1.25;;;;;;;6.20;100.00;102426.84;6336484;28;20052;-71
2022/01/17 12:51:25;;;;;;;8.75;1.40;;;;;;;6.31;100.00;102414.59;6334185;28;20066;-79
2022/01/17 12:54:29;;;;;;;7.93;0.40;;;;;;;6.37;100.00;102418.03;6337560;28;20047;-79
2022/01/17 12:57:30;;;;;;;7.30;0.52;;;;;;;6.41;100.00;102428.44;6332019;28;20052;-78
2022/01/17 13:00:32;;;;;;;0.13;0.13;;;;;;;6.44;100.00;102417.94;6334288;28;20039;-78
2022/01/17 13:03:36;;;;;;;1.27;0.45;;;;;;;6.50;100.00;102425.72;6337416;28;20040;-78
2022/01/17 13:06:40;;;;;;;6.85;0.75;;;;;;;6.58;100.00;102449.16;6335074;28;20044;-78
2022/01/17 13:09:41;;;;;;;1.13;0.52;;;;;;;6.65;100.00;102465.63;6335201;27;20047;-78
2022/01/17 13:12:43;;;;;;;2.33;0.50;;;;;;;6.61;100.00;102457.81;6337541;27;20043;-77
2022/01/17 13:15:56;;;;;;;2.63;0.52;;;;;;;6.53;100.00;102437.88;6339637;27;20043;-78
2022/01/17 13:18:58;;;;;;;7.47;1.20;;;;;;;6.47;100.00;102440.56;6349340;27;20047;-77
2022/01/17 13:22:03;;;;;;;1.58;0.45;;;;;;;6.43;100.00;102444.06;6354417;27;20086;-78
2022/01/17 13:25:06;;;;;;;4.70;0.60;;;;;;;6.49;100.00;102451.84;6349972;27;20048;-77
2022/01/17 13:28:08;;;;;;;0.90;0.30;;;;;;;6.52;100.00;102457.03;6344061;27;20058;-79
2022/01/17 13:31:16;;;;;;;5.10;0.40;;;;;;;6.55;100.00;102443.97;6351040;27;20043;-77
2022/01/17 13:34:20;;;;;;;2.75;0.57;;;;;;;6.61;100.00;102478.72;6356716;27;20055;-78
2022/01/17 13:37:26;;;;;;;4.93;0.60;;;;;;;6.50;100.00;102459.69;6341273;27;20491;-78
2022/01/17 13:40:29;;;;;;;15.50;2.00;;;;;;;6.20;100.00;102476.44;6371479;27;20055;-77
2022/01/17 13:43:31;;;;;;;10.18;0.68;;;;;;;5.95;100.00;102482.69;6353272;27;20050;-78
2022/01/17 13:46:32;;;;;;;2.05;0.35;;;;;;;5.71;100.00;102491.50;6356434;27;20219;-78
2022/01/17 13:49:37;;;;;;;3.00;0.35;;;;;;;5.73;100.00;102500.22;6350023;28;20074;-79
2022/01/17 13:52:40;;;;;;;5.82;0.70;;;;;;;5.75;100.00;102511.50;6360204;27;20055;-80
2022/01/17 13:55:43;;;;;;;1.65;0.70;;;;;;;5.64;100.00;102519.38;6347394;27;20044;-78
2022/01/17 13:58:46;;;;;;;1.58;0.50;;;;;;;5.60;100.00;102499.41;6347373;28;20051;-71
2022/01/17 14:01:47;;;;;;;6.20;1.40;;;;;;;5.68;100.00;102486.28;6355941;27;20078;-79
2022/01/17 14:04:49;;;;;;;0.30;0.20;;;;;;;5.71;100.00;102488.91;6339315;28;20044;-79
2022/01/17 14:07:52;;;;;;;0.35;0.20;;;;;;;5.83;100.00;102504.50;6331877;28;20418;-81
2022/01/17 14:11:00;;;;;;;0.60;0.43;;;;;;;5.95;100.00;102525.34;6322968;28;20431;-81
2022/01/17 14:14:01;;;;;;;3.15;0.98;;;;;;;6.07;100.00;102513.94;6322105;28;20051;-78
2022/01/17 14:17:03;;;;;;;1.75;0.43;;;;;;;6.17;100.00;102505.19;6328582;28;20044;-73
2022/01/17 14:20:16;;;;;;;1.38;0.32;;;;;;;6.28;100.00;102486.84;6321739;28;20077;-78
2022/01/17 14:23:35;;;;;;;1.83;0.38;;;;;;;6.36;100.00;102511.16;6323817;28;20055;-78
2022/01/17 14:26:37;;;;;;;;;;;;;;;6.37;100.00;102507.66;6336086;28;20055;-77
2022/01/17 14:29:42;;;;;;;4.00;0.80;;;;;;;6.32;100.00;102515.53;6338500;28;19920;-77